This is the latest recevied weather packets stored in our database for station/object HARMALA. If no packets are shown the sender has not sent any weather packets the latest 10 day(s).
| Time | Temp. | Humidity | Pressure | Rain* | Wind** | Luminosity | Snow |
|---|---|---|---|---|---|---|---|
| 1777697223 | 8.89° C | 68% | 1009.8 hPa | 0 mm | - | - | - |
| 1777696023 | 8.33° C | 72% | 1009.9 hPa | 0 mm | - | - | - |
| 1777694823 | 7.78° C | 76% | 1010.1 hPa | 0 mm | - | - | - |
| 1777693624 | 5.56° C | 79% | 1010.5 hPa | 0 mm | - | - | - |
| 1777692422 | 2.78° C | 90% | 1010.8 hPa | 0 mm | - | - | - |
| 1777691223 | 2.22° C | 91% | 1010.9 hPa | 0 mm | - | - | - |
| 1777690023 | 2.22° C | 90% | 1010.9 hPa | 0 mm | - | - | - |
| 1777688823 | 2.22° C | 88% | 1011.2 hPa | 0 mm | - | - | - |
| 1777687623 | 2.22° C | 89% | 1011.5 hPa | 0 mm | - | - | - |
| 1777686423 | 2.22° C | 87% | 1011.8 hPa | 0 mm | - | - | - |
| 1777685223 | 2.22° C | 88% | 1012.1 hPa | 0 mm | - | - | - |
| 1777684023 | 2.78° C | 86% | 1012.3 hPa | 0 mm | - | - | - |
| 1777682823 | 2.78° C | 85% | 1012.6 hPa | 0 mm | - | - | - |
| 1777681623 | 3.33° C | 84% | 1012.9 hPa | 0 mm | - | - | - |
| 1777680423 | 3.33° C | 85% | 1013.1 hPa | 0 mm | - | - | - |
| 1777679223 | 3.33° C | 83% | 1013.1 hPa | 0 mm | - | - | - |
| 1777678022 | 3.89° C | 81% | 1013.2 hPa | 0 mm | - | - | - |
| 1777676822 | 3.89° C | 80% | 1013.3 hPa | 0 mm | - | - | - |
| 1777675622 | 4.44° C | 81% | 1013.4 hPa | 0 mm | - | - | - |
| 1777674423 | 5° C | 77% | 1013.4 hPa | 0 mm | - | - | - |
| 1777673222 | 5° C | 76% | 1013.6 hPa | 0 mm | - | - | - |
| 1777672022 | 5.56° C | 75% | 1013.8 hPa | 0 mm | - | - | - |
| 1777670822 | 6.11° C | 74% | 1014.1 hPa | 0 mm | - | - | - |
| 1777669622 | 6.67° C | 70% | 1014.3 hPa | 0 mm | - | - | - |
| 1777668421 | 7.22° C | 68% | 1014.3 hPa | 0 mm | - | - | - |
* Rain latest hour (hover to see other rain measurements)
** Current wind speed in m/s (hover to see current wind gust speed)